Terminal Aerodrome Forecast
Issued by NWS Charleston, WV

Current Version | Previous Version | Graphics & Text | Print | Product List | Glossary On
Versions: 1 2 3 4 5 6 7 8 9 10 11 12 13 14 15 16 17 18 19 20 21 22 23 24 25 26 27 28 29 30 31 32
000
FTUS41 KRLX 200600 CCA
TAFHTS
TAF COR
KHTS 200655Z 2007/2106 00000KT 6SM BR BKN035
      TEMPO 2007/2009 4SM BR SCT035
     FM200900 00000KT 5SM BR BKN015
     FM201300 15003KT P6SM BKN025
     FM201500 17004KT P6SM BKN035
     FM202300 00000KT P6SM SCT040=

USA.gov is the U.S. government's official web portal to all federal, state and local government web resources and services.